Date,TemperatureHighF,TemperatureAvgF,TemperatureLowF,DewpointHighF,DewpointAvgF,DewpointLowF,HumidityHigh,HumidityAvg,HumidityLow,PressureMaxIn,PressureMinIn,WindSpeedMaxMPH,WindSpeedAvgMPH,GustSpeedMaxMPH,PrecipitationSumIn
2013-1-1,69.2,41.5,30.5,42.6,29.0,22.8,83,64,29,30.27,30.18,6,0,6,0.00
2013-1-2,70.5,41.4,27.8,43.5,27.6,19.7,77,60,29,30.24,30.13,6,0,6,0.00
2013-1-3,70.8,41.0,28.5,43.6,28.0,20.5,80,62,29,30.25,30.16,3,0,4,0.00
2013-1-4,73.5,42.8,29.1,45.1,29.5,21.2,81,62,29,30.28,30.17,2,0,2,0.00
2013-1-5,55.5,43.2,32.5,42.3,34.2,24.4,82,71,57,30.25,30.07,6,0,6,0.06
2013-1-6,63.1,46.3,35.2,51.2,39.6,29.0,88,78,54,30.17,30.07,4,0,4,0.18
2013-1-7,53.6,40.5,32.1,45.2,34.4,27.5,91,79,66,30.23,30.11,6,0,6,0.02
2013-1-8,71.2,45.9,33.9,51.1,36.9,29.2,91,73,40,30.23,30.12,3,0,4,0.00
2013-1-9,53.0,45.1,37.9,45.8,39.3,32.3,88,80,71,30.16,29.89,6,0,6,0.19
2013-1-10,64.5,39.7,0.0,45.9,30.8,-12.3,94,73,34,30.13,30.00,7,0,11,0.00
2013-1-11,62.9,37.2,25.1,42.5,24.5,18.3,84,62,32,30.22,30.10,5,0,5,0.00
2013-1-12,65.1,35.7,21.9,34.4,19.2,10.9,78,54,23,30.23,30.12,6,0,6,0.00
2013-1-13,64.0,33.9,20.3,33.8,16.4,6.1,72,51,19,30.24,30.13,7,0,7,0.00
2013-1-14,68.1,36.0,21.0,30.3,13.7,1.7,64,43,19,30.38,30.18,4,0,6,0.00
2013-1-15,29.8,29.4,28.7,15.5,14.2,11.8,55,53,48,30.41,30.37,0,0,0,0.00
2013-1-18,55.5,42.1,34.7,26.0,21.6,18.8,52,44,32,30.16,30.13,0,0,0,0.00
2013-1-19,84.0,45.6,28.9,42.5,24.5,16.3,75,47,19,30.25,30.14,7,0,7,0.00
2013-1-20,80.7,45.4,28.2,41.1,25.1,16.1,73,48,19,30.22,30.11,6,0,7,0.00
2013-1-21,85.4,47.1,30.5,43.5,26.8,18.3,74,49,19,30.17,30.09,14,0,14,0.00
2013-1-22,78.0,47.7,31.2,42.3,29.6,19.7,73,52,26,30.14,30.01,7,0,7,0.00
2013-1-23,62.4,50.0,41.3,45.3,37.5,29.7,79,63,41,30.08,29.96,6,0,6,0.06
2013-1-24,58.4,53.5,49.4,50.7,47.3,43.9,85,79,73,30.17,30.04,5,0,5,0.06
2013-1-25,83.8,59.4,52.7,58.3,49.5,45.3,88,72,37,30.17,30.01,3,0,5,0.00
2013-1-26,71.0,54.0,45.3,52.3,44.2,36.4,89,71,35,30.01,29.90,11,1,11,0.00
2013-1-27,71.9,46.2,33.9,46.4,34.5,27.7,90,66,31,30.12,29.99,4,0,6,0.02
2013-1-28,69.9,44.2,31.8,42.1,30.2,23.8,79,60,30,30.23,30.10,10,1,10,0.00
2013-1-29,71.2,46.0,34.5,41.5,31.8,24.8,79,60,29,30.30,30.21,9,1,9,0.00
2013-1-30,78.9,48.5,33.9,46.9,34.4,25.9,86,61,27,30.33,30.23,7,0,7,0.00
2013-1-31,80.9,49.8,34.7,50.1,35.5,26.8,85,61,27,30.29,30.17,6,0,6,0.00
2013-2-1,86.9,51.4,34.1,49.6,35.6,26.9,85,59,23,30.21,30.11,4,0,4,0.00
2013-2-2,95.9,53.1,40.2,51.2,37.3,30.9,75,59,19,30.26,30.17,4,0,4,0.00
2013-2-3,93.5,51.0,33.9,49.6,36.0,27.1,88,61,19,30.21,30.09,5,0,5,0.00
2013-2-4,41.7,38.9,37.7,34.2,30.7,29.2,79,73,67,30.13,30.10,0,0,0,0.00
2013-2-5,64.7,47.0,36.3,45.3,36.8,28.4,86,68,47,30.10,30.01,7,1,7,0.00
2013-2-6,80.0,47.3,33.0,47.5,34.2,26.2,84,64,24,30.14,30.07,6,0,6,0.00
2013-2-7,60.4,47.7,40.6,44.4,37.9,30.8,80,69,48,30.14,29.96,7,0,7,0.02
2013-2-8,71.9,46.4,33.4,42.6,29.4,17.9,82,55,24,29.97,29.87,11,2,11,0.00
2013-2-9,77.7,43.8,26.9,39.6,23.5,13.6,65,47,19,30.07,29.93,6,1,6,0.00
2013-2-10,74.8,46.1,31.1,40.5,27.9,21.0,72,52,23,30.10,29.97,7,1,9,0.00
2013-2-11,79.1,48.9,33.6,37.0,25.8,16.8,57,43,19,30.22,30.04,7,1,7,0.00
2013-2-12,79.5,49.2,35.7,40.4,29.8,24.0,66,50,19,30.35,30.21,6,0,7,0.00
2013-2-13,82.0,49.3,33.4,42.2,30.7,22.8,75,52,19,30.31,30.17,7,0,7,0.00
2013-2-14,42.8,39.4,37.0,28.9,27.1,25.8,64,61,58,30.21,30.19,0,0,0,0.00
2013-3-9,91.5,61.4,43.7,43.5,34.0,24.4,80,40,19,30.25,30.18,9,2,11,0.00
2013-3-10,91.0,55.1,35.4,45.5,34.1,22.3,67,48,19,30.33,30.22,8,1,8,0.00
2013-3-11,98.7,59.1,41.1,49.3,38.5,31.9,75,51,19,30.23,30.07,6,0,7,0.00
2013-3-12,103.1,62.7,44.9,52.9,41.4,35.0,74,50,19,30.13,30.04,6,0,7,0.00
2013-3-13,98.0,64.1,47.3,53.2,43.0,37.3,76,50,19,30.15,30.04,7,0,7,0.00
2013-3-14,55.4,54.0,52.1,40.7,39.7,38.3,61,58,56,30.07,30.06,0,0,0,0.00
2013-3-22,47.8,43.9,40.8,25.7,25.0,24.1,55,48,40,30.04,30.02,0,0,0,0.00
2013-3-23,76.2,44.0,33.0,37.6,28.0,23.0,71,56,25,30.11,30.03,7,1,7,0.00
2013-3-24,99.3,59.7,41.1,49.8,34.5,28.8,64,43,19,30.05,29.92,6,1,6,0.00
2013-3-25,86.7,57.5,0.0,45.5,38.4,0.0,68,51,20,29.97,29.86,57,1,57,0.00
2013-3-26,94.6,66.0,46.4,58.8,41.9,36.2,77,45,19,29.96,29.87,7,1,7,0.00
2013-3-27,89.9,60.3,0.0,52.7,42.8,-8.0,73,55,23,29.98,29.90,8,1,8,0.00
2013-3-28,84.9,63.5,53.2,52.5,46.8,42.9,70,56,29,30.07,29.98,6,1,7,0.00
2013-3-29,105.8,65.1,45.8,55.1,44.3,37.9,80,53,19,30.07,29.97,7,0,7,0.00
2013-3-30,85.4,65.6,50.3,52.2,45.5,40.1,72,50,30,30.01,29.92,7,1,7,0.00
2013-3-31,81.3,60.9,54.5,56.3,50.2,44.9,89,70,35,30.07,29.95,7,1,7,0.94
2013-4-1,83.3,60.7,50.3,55.4,48.1,43.0,88,66,33,30.12,30.02,7,0,7,0.02
2013-4-2,96.6,61.7,46.5,56.4,45.6,40.1,81,59,19,30.14,30.02,7,1,7,0.00
2013-4-3,92.6,64.7,49.6,57.0,48.1,42.6,80,58,25,30.10,29.93,7,0,7,0.00
2013-4-4,67.8,59.1,53.7,60.0,50.9,43.4,85,75,60,30.08,29.94,7,1,7,0.27
2013-4-5,75.7,61.2,52.3,53.6,49.6,46.0,88,68,40,30.13,30.05,7,0,7,0.00
2013-4-6,79.3,60.9,52.8,56.7,49.5,46.4,82,68,40,30.15,30.05,7,1,7,0.00
2013-4-7,71.7,59.8,51.9,52.5,47.1,40.9,81,64,48,30.11,29.76,10,2,10,0.02
2013-4-8,80.9,57.7,46.5,46.1,36.7,24.2,82,51,19,29.97,29.71,18,3,18,0.04
2013-4-9,67.6,49.8,43.7,36.2,32.5,30.2,61,52,29,30.04,29.97,12,2,15,0.00
2013-4-10,56.3,54.5,52.7,33.0,32.2,31.1,47,43,40,30.06,30.04,2,0,2,0.00
2013-4-12,98.4,78.0,59.0,49.1,41.7,31.4,52,29,19,29.84,29.75,7,1,7,0.00
2013-4-13,95.3,67.3,50.0,48.6,43.3,38.4,73,46,19,29.84,29.73,7,1,7,0.00
2013-4-14,90.5,62.8,45.6,42.6,38.2,29.0,73,45,19,29.86,29.70,9,1,9,0.00
2013-4-15,72.3,54.9,43.5,46.0,40.1,33.6,77,60,26,29.87,29.77,57,1,57,0.18
2013-4-16,82.2,53.6,35.2,40.0,29.5,17.1,84,47,19,30.13,29.87,12,2,14,0.00
2013-4-17,82.5,58.5,43.3,36.1,23.8,17.3,45,28,19,30.21,30.12,13,3,15,0.00
2013-4-18,96.9,61.1,38.3,47.9,30.3,22.7,60,35,19,30.23,30.13,7,0,7,0.00
2013-4-19,100.5,68.3,48.9,50.8,38.3,33.4,59,37,19,30.20,30.01,8,1,8,0.00
2013-4-20,100.0,67.9,48.9,50.4,39.1,27.7,71,40,19,30.06,29.92,10,1,10,0.00
2013-4-21,104.7,71.6,50.3,54.2,41.4,35.4,67,38,19,30.00,29.88,8,1,10,0.00
2013-4-22,103.1,71.9,52.7,52.9,41.6,28.8,67,38,19,29.93,29.80,12,1,12,0.00
2013-4-23,103.2,70.3,50.3,53.0,36.0,28.4,51,31,19,29.89,29.79,8,1,8,0.00
2013-4-24,106.5,71.8,49.4,55.7,40.7,31.6,62,37,19,29.84,29.70,10,1,10,0.00
2013-4-25,90.3,65.6,52.5,48.9,44.7,41.1,74,50,19,30.06,29.84,8,1,8,0.00
2013-4-26,100.0,69.0,49.6,50.7,45.8,39.5,77,49,19,30.16,30.06,7,1,7,0.00
2013-4-27,105.2,73.2,52.7,54.6,47.5,42.4,73,45,19,30.17,29.99,7,0,8,0.00
2013-4-28,99.8,74.7,54.1,50.9,46.1,40.5,70,41,19,30.00,29.82,8,1,8,0.00
2013-4-29,98.0,75.2,56.4,53.7,46.8,39.9,72,41,19,29.85,29.70,8,1,10,0.00
2013-4-30,88.1,70.8,55.4,46.7,37.7,21.4,63,34,19,29.81,29.71,18,2,18,0.00
2013-5-1,97.7,73.8,53.9,48.5,30.6,16.4,30,21,19,30.03,29.81,11,2,11,0.00
2013-5-2,102.3,76.0,53.6,52.3,34.9,17.5,37,23,19,30.13,30.01,7,1,8,0.00
2013-5-3,101.3,76.9,58.1,51.4,41.2,33.1,50,30,19,30.03,29.74,6,0,6,0.00
2013-5-4,100.0,76.9,57.5,50.4,40.4,32.1,45,29,19,29.75,29.46,10,1,10,0.00
2013-5-5,84.5,68.2,55.7,46.2,43.0,39.6,65,42,24,29.77,29.52,6,0,6,0.00
2013-5-6,76.6,65.5,58.1,55.9,48.6,42.2,76,56,40,29.92,29.77,8,1,8,0.13
2013-5-7,78.4,66.8,59.1,52.5,49.7,47.3,75,56,37,29.99,29.92,6,0,6,0.00
2013-5-8,87.2,69.1,59.0,53.7,48.3,44.2,74,50,24,30.07,29.97,7,1,9,0.00
2013-5-9,90.8,69.9,53.6,53.9,49.2,44.5,77,51,25,30.08,29.97,6,1,6,0.00
2013-5-10,96.4,73.4,55.2,56.7,51.0,45.6,74,49,23,30.12,29.99,22,1,22,0.00
2013-5-11,105.0,79.8,60.0,58.8,53.6,48.2,71,44,19,30.07,29.97,6,0,8,0.00
2013-5-12,104.3,80.8,63.1,56.3,49.6,36.7,71,39,19,30.07,29.94,7,1,7,0.00
2013-5-13,104.0,78.3,58.8,53.6,45.7,38.2,61,35,19,30.02,29.85,7,1,7,0.00
2013-5-14,100.5,76.4,58.4,53.7,47.7,43.1,66,40,19,29.88,29.81,8,1,8,0.00
2013-5-15,68.1,63.7,60.0,44.1,42.4,40.8,49,46,42,29.90,29.88,10,1,10,0.00
2013-5-22,55.2,54.1,53.2,26.0,24.6,22.1,35,32,28,29.84,29.83,0,0,0,0.00
2013-5-23,86.7,63.3,47.6,42.2,33.4,23.4,62,36,19,29.94,29.84,8,1,10,0.00
2013-5-24,90.8,67.2,48.5,43.1,35.0,25.3,55,33,19,29.96,29.85,9,1,9,0.00
2013-5-25,89.9,67.1,49.8,45.0,38.5,32.9,60,38,19,29.97,29.88,7,1,8,0.00
2013-5-26,90.5,68.4,54.1,50.3,44.5,36.1,71,46,19,30.04,29.95,10,1,10,0.00
2013-5-27,69.9,62.7,54.8,51.9,47.0,42.9,78,57,45,30.05,29.96,7,1,9,0.01
2013-5-28,90.8,69.8,58.2,56.4,51.1,44.2,82,56,24,29.96,29.83,7,1,7,0.00
2013-5-29,93.0,72.3,58.6,54.0,48.3,40.8,75,46,19,29.90,29.81,7,1,7,0.02
2013-5-30,96.8,72.8,53.7,52.6,44.3,31.5,71,41,19,29.92,29.86,7,1,8,0.00
2013-5-31,100.9,75.9,52.5,51.1,42.0,35.3,63,33,19,29.95,29.83,11,1,12,0.00
2013-6-1,105.9,81.6,58.1,55.2,45.9,39.7,58,32,19,29.86,29.70,7,0,7,0.00
2013-6-2,108.1,83.2,61.1,57.0,47.7,40.2,59,32,19,29.71,29.57,8,1,8,0.00
2013-6-3,106.1,80.3,60.9,55.4,49.0,44.6,60,37,19,29.75,29.63,7,1,7,0.00
2013-6-4,95.3,73.4,58.4,53.1,49.3,46.4,68,46,22,29.85,29.74,11,2,11,0.00
2013-6-5,100.7,74.7,56.3,55.0,50.5,46.7,73,47,19,29.93,29.78,7,1,7,0.00
2013-6-6,105.6,79.4,58.6,57.3,51.5,45.5,67,41,19,29.87,29.73,6,1,8,0.00
2013-6-7,107.2,82.3,63.1,59.1,52.5,45.6,65,39,19,29.81,29.65,8,1,11,0.00
2013-6-8,107.9,87.6,69.2,58.3,52.9,48.9,53,33,19,29.69,29.58,7,0,9,0.00
2013-6-9,90.1,75.7,65.6,54.2,51.2,48.7,59,44,27,29.81,29.66,8,2,13,0.02
2013-6-10,80.0,67.5,58.8,53.9,49.7,47.5,72,55,34,29.91,29.77,8,2,11,0.00
2013-6-11,94.1,74.6,56.1,55.8,49.3,45.3,76,45,22,29.93,29.82,7,1,7,0.00
2013-6-12,71.0,66.8,63.6,49.0,48.0,46.6,57,51,43,29.86,29.84,0,0,0,0.00
2013-6-24,70.1,66.2,63.6,61.0,59.2,54.6,86,78,68,29.89,29.78,6,0,6,0.31
2013-6-25,75.3,68.4,63.3,67.4,63.0,58.7,96,83,72,29.97,29.86,6,0,7,0.29
2013-6-26,93.7,77.4,62.6,65.4,60.8,55.3,91,60,33,30.00,29.92,7,1,8,0.00
2013-6-27,102.0,82.4,65.6,64.4,59.1,52.5,79,49,21,30.03,29.93,7,1,7,0.00
2013-6-28,107.6,86.2,68.5,65.5,58.1,50.2,74,43,19,29.97,29.81,7,1,7,0.00
2013-6-29,107.4,89.7,74.1,61.5,55.5,49.1,55,33,19,29.86,29.71,22,1,22,0.00
2013-6-30,107.2,88.0,71.7,63.3,55.6,47.9,61,36,19,29.78,29.67,5,0,5,0.00
2013-7-1,107.2,88.5,73.0,61.6,56.5,48.9,56,37,19,29.78,29.71,7,0,7,0.00
2013-7-2,107.2,90.3,78.6,63.0,57.0,47.3,53,35,19,29.83,29.73,9,1,9,0.00
2013-7-3,107.4,88.4,74.4,60.9,55.1,47.8,49,34,20,29.84,29.68,6,1,6,0.00
2013-7-4,107.7,90.7,77.9,65.8,60.0,52.8,58,38,19,29.70,29.56,7,1,10,0.00
2013-7-5,98.4,83.2,70.1,65.0,47.1,41.8,44,29,19,29.69,29.60,8,2,8,0.00
2013-7-6,100.9,79.6,61.8,53.6,48.8,43.9,62,37,19,29.74,29.64,7,1,8,0.00
2013-7-7,104.1,81.8,62.0,54.4,46.6,30.9,62,32,19,29.77,29.69,6,1,7,0.00
2013-7-8,104.3,80.9,62.0,53.9,43.6,33.3,49,29,19,29.91,29.77,7,1,7,0.00
2013-7-9,107.0,83.0,61.8,56.1,45.7,36.6,53,29,19,29.97,29.86,7,0,7,0.00
2013-7-10,106.3,85.3,68.7,55.5,45.5,32.5,46,26,19,29.89,29.79,8,1,8,0.00
2013-7-11,100.5,80.5,62.9,50.8,42.4,33.4,50,28,19,29.86,29.76,7,2,8,0.00
2013-7-12,72.3,68.9,66.3,47.4,45.6,43.3,48,43,36,29.84,29.83,7,1,7,0.00
2013-7-15,86.3,75.6,68.1,46.2,43.2,38.2,45,33,19,29.79,29.73,6,1,6,0.00
2013-7-16,91.5,71.8,57.0,52.5,48.1,43.6,76,47,21,29.96,29.79,7,2,7,0.00
2013-7-17,100.2,76.6,57.5,56.2,48.1,34.2,73,42,19,30.03,29.93,7,1,7,0.00
2013-7-18,105.2,80.7,58.1,54.6,45.9,36.2,62,33,19,29.99,29.83,7,0,7,0.00
2013-7-19,107.0,80.5,0.0,56.1,45.3,-32.4,54,31,19,29.87,29.71,7,1,7,0.00
2013-7-20,107.0,84.5,66.0,56.1,50.3,45.1,55,33,19,29.77,29.62,7,1,7,0.00
2013-7-21,104.1,84.8,68.3,54.6,48.8,38.8,51,31,19,29.81,29.67,8,2,8,0.00
2013-7-22,102.0,82.6,68.3,52.7,46.0,33.4,54,30,19,29.91,29.81,8,1,8,0.00
2013-7-23,101.4,84.1,71.2,51.5,43.4,37.0,37,25,19,29.94,29.81,10,1,10,0.00
2013-7-24,106.5,86.0,67.6,55.7,48.0,40.2,47,28,19,29.91,29.80,8,1,8,0.00
2013-7-25,107.2,85.1,0.0,56.3,50.3,-32.4,48,32,19,29.91,29.83,7,1,8,0.00
2013-7-26,106.1,84.9,68.9,55.4,49.4,45.5,48,31,19,29.99,29.87,7,1,7,0.00
2013-7-27,103.1,82.0,65.6,54.6,50.1,46.0,57,35,19,29.92,29.75,60,2,60,0.00
2013-7-28,101.6,80.6,66.3,55.8,49.9,42.3,58,37,19,29.79,29.68,10,1,10,0.00
2013-7-29,70.5,69.2,67.6,44.3,43.7,43.0,42,40,38,29.76,29.75,0,0,0,0.00
2013-7-30,99.5,77.4,58.6,55.0,48.5,38.4,72,41,19,30.03,29.91,7,1,7,0.00
2013-7-31,98.9,77.0,60.9,52.0,47.6,40.4,65,39,19,30.00,29.88,7,1,7,0.00
2013-8-1,97.5,76.2,60.2,50.4,44.6,37.7,58,36,19,29.98,29.86,19,2,19,0.00
2013-8-2,100.2,77.4,55.7,50.5,43.6,38.6,59,34,19,29.91,29.80,7,1,12,0.00
2013-8-3,102.7,78.1,58.1,52.6,45.0,38.3,57,34,19,29.91,29.80,7,1,7,0.00
2013-8-4,100.9,78.1,61.3,51.8,46.0,37.7,61,36,19,29.92,29.83,7,1,8,0.00
2013-8-5,100.5,76.6,58.6,53.0,46.6,34.0,72,39,19,29.95,29.84,57,1,57,0.00
2013-8-6,96.9,74.4,59.3,51.7,47.4,41.1,67,42,19,29.95,29.86,9,2,18,0.00
2013-8-7,88.5,70.4,59.7,54.3,51.7,48.4,76,55,26,30.04,29.94,11,2,11,0.00
2013-8-8,93.5,72.9,58.2,54.8,49.8,41.5,79,50,19,29.98,29.84,7,1,7,0.00
2013-8-9,92.3,72.7,57.5,53.8,49.4,44.8,77,48,21,29.91,29.84,8,1,9,0.00
2013-8-10,94.4,73.9,58.4,55.8,50.7,44.3,79,49,19,29.98,29.89,8,1,8,0.00
2013-8-11,98.7,77.1,58.6,56.6,49.7,40.8,76,43,19,29.96,29.83,7,1,7,0.00
2013-8-12,100.5,78.1,60.4,52.3,46.4,36.0,64,37,19,29.93,29.85,7,1,7,0.00
2013-8-13,104.7,79.0,57.7,54.2,45.2,37.5,58,33,19,29.94,29.82,7,0,7,0.00
2013-8-14,70.7,66.4,62.4,44.0,42.8,41.7,48,43,36,29.87,29.86,0,0,0,0.00
2013-8-18,84.3,83.5,82.7,54.3,53.7,53.2,37,36,36,29.76,29.74,5,1,5,0.00
2013-8-19,105.9,87.4,74.4,58.7,55.3,52.1,51,35,19,29.84,29.71,7,1,7,0.00
2013-8-20,105.2,85.4,71.9,56.6,53.1,50.1,50,35,19,29.83,29.71,7,1,8,0.00
2013-8-21,100.9,78.8,0.0,54.3,48.1,-28.3,54,37,19,29.86,29.77,7,1,7,0.00
2013-8-22,96.9,76.8,62.4,52.7,48.1,39.5,61,40,19,29.88,29.78,7,1,7,0.00
2013-8-23,98.4,75.6,58.4,54.0,48.7,41.0,73,44,19,29.86,29.71,6,1,7,0.00
2013-8-24,96.0,77.1,63.5,52.6,48.7,43.2,59,40,19,29.82,29.74,7,2,64,0.00
2013-8-25,95.9,76.8,64.9,59.4,54.5,48.9,74,50,22,29.90,29.80,7,1,7,0.00
2013-8-26,97.8,76.2,61.7,57.2,51.1,42.1,77,47,19,29.95,29.82,7,1,7,0.00
2013-8-27,102.3,77.4,58.4,53.8,47.3,40.8,64,39,19,29.85,29.72,7,1,9,0.00
2013-8-28,102.9,79.8,63.3,54.8,48.9,37.7,63,38,19,29.86,29.78,9,1,9,0.00
2013-8-29,102.9,80.3,64.9,58.5,52.0,40.5,73,43,19,29.99,29.86,7,1,7,0.00
2013-8-30,105.8,78.9,58.6,55.1,47.5,39.0,62,37,19,29.99,29.84,7,0,7,0.00
2013-8-31,104.9,80.6,60.9,54.4,45.8,36.2,54,32,19,29.90,29.80,7,1,7,0.00
2013-9-1,98.9,80.8,67.8,51.5,46.1,39.5,52,31,19,29.88,29.78,7,1,7,0.00
2013-9-2,77.3,72.4,68.3,68.6,60.7,49.6,85,68,38,29.91,29.82,7,0,7,0.32
2013-9-3,94.8,75.0,64.0,61.2,54.7,44.7,78,54,24,29.94,29.85,7,1,7,0.00
2013-9-4,98.4,75.3,61.5,56.3,50.3,38.8,73,46,19,29.97,29.85,12,1,12,0.00
2013-9-5,96.4,74.5,61.7,54.9,49.0,38.2,69,45,19,29.95,29.86,8,1,8,0.00
2013-9-6,103.1,74.5,55.2,52.9,45.5,36.1,69,40,19,29.94,29.78,8,1,8,0.00
2013-9-7,105.9,78.0,59.9,55.2,46.3,39.9,60,36,19,29.85,29.74,5,0,6,0.00
2013-9-8,105.4,79.6,62.6,54.8,46.8,37.9,56,35,19,29.81,29.68,7,0,7,0.00
2013-9-9,106.1,80.1,62.9,55.4,47.3,41.2,52,34,19,29.75,29.60,6,0,7,0.00
2013-9-10,101.8,78.2,65.1,53.9,51.0,47.1,60,41,19,29.82,29.64,7,2,7,0.00
2013-9-11,93.9,72.9,62.2,59.0,54.3,50.4,77,56,25,29.94,29.82,7,1,10,0.00
2013-9-12,66.5,64.4,62.7,54.8,54.2,53.5,73,70,65,29.91,29.89,0,0,0,0.00
2013-9-18,96.6,75.0,53.7,48.0,42.4,36.0,70,35,19,29.87,29.75,8,2,8,0.00
2013-9-19,105.4,72.4,53.0,54.8,41.9,37.2,62,38,19,29.82,29.69,58,1,58,0.00
2013-9-20,94.4,71.1,0.0,54.2,44.6,0.0,66,41,19,29.81,29.70,10,2,10,0.00
2013-9-21,71.4,63.2,56.3,58.3,54.8,50.8,85,75,52,29.86,29.76,7,0,8,0.31
2013-9-22,86.7,62.4,50.9,56.2,49.7,45.8,88,67,29,29.95,29.84,7,0,8,0.02
2013-9-23,95.7,67.1,51.8,56.1,49.2,44.4,81,57,23,29.98,29.87,7,0,7,0.00
2013-9-24,91.9,69.2,58.2,55.4,49.4,40.1,75,53,19,29.93,29.79,8,1,8,0.00
2013-9-25,86.9,63.9,53.7,50.9,41.0,26.4,76,48,19,29.88,29.75,12,1,12,0.00
2013-9-26,58.6,57.8,56.8,36.4,35.9,34.9,46,44,41,29.78,29.77,4,1,4,0.00
2013-9-27,93.3,62.7,44.7,44.9,33.9,26.4,62,38,19,30.06,29.93,7,0,7,0.00
2013-9-28,98.0,67.6,53.6,48.8,36.9,30.6,51,35,19,30.06,29.94,6,1,7,0.00
2013-9-29,88.5,67.6,58.4,53.9,46.9,33.3,67,49,28,30.07,29.98,11,1,11,0.00
2013-9-30,90.5,72.5,62.2,58.5,54.7,50.6,76,56,30,30.04,29.90,8,1,8,0.00
2013-10-1,93.2,67.5,55.9,51.6,45.5,38.0,75,50,19,29.97,29.86,7,0,7,0.00
2013-10-2,93.9,65.6,51.4,51.3,41.4,30.6,73,47,19,29.95,29.86,7,0,7,0.00
2013-10-3,87.2,64.1,48.9,39.9,32.7,21.0,57,35,19,29.99,29.84,14,3,14,0.00
2013-10-4,93.5,67.9,51.4,45.1,27.3,16.6,34,22,19,30.07,29.94,14,2,14,0.00
2013-10-5,98.6,63.9,0.0,49.2,29.7,-21.3,48,30,19,30.18,30.07,7,0,7,0.00
2013-10-6,96.6,66.5,47.3,47.6,33.7,26.0,55,32,19,30.11,29.97,6,0,7,0.00
2013-10-7,96.8,68.1,50.5,47.8,34.0,26.9,48,30,19,29.97,29.81,7,0,7,0.00
2013-10-8,85.2,61.9,47.1,38.4,33.0,29.0,54,36,19,29.85,29.62,6,0,6,0.00
2013-10-9,59.9,52.7,48.9,34.5,33.0,31.6,56,48,36,29.72,29.56,0,0,0,0.00
2013-10-10,86.9,62.1,49.1,44.9,37.8,31.7,59,43,19,29.95,29.72,7,1,9,0.00
2013-10-11,90.8,63.6,48.5,44.9,38.9,34.7,65,43,19,30.03,29.92,7,1,7,0.00
2013-10-12,89.0,62.9,46.7,45.3,37.9,31.8,67,44,19,29.97,29.82,8,1,8,0.00
2013-10-13,88.1,65.9,46.0,46.1,38.5,32.0,72,40,19,30.00,29.85,10,1,10,0.00
2013-10-14,90.8,61.9,44.7,42.9,35.4,29.6,65,41,19,30.09,29.97,6,1,9,0.00
2013-10-15,94.6,62.4,44.2,46.0,34.0,25.1,63,39,19,30.02,29.90,6,1,7,0.00
2013-10-16,93.5,63.9,46.2,45.1,31.9,24.8,43,32,19,30.08,29.95,7,0,7,0.00
2013-10-17,53.4,51.8,50.7,32.9,31.4,30.4,50,46,42,30.02,30.01,0,0,0,0.00
2013-10-18,76.2,62.7,54.3,33.4,31.6,29.2,42,32,19,29.99,29.95,0,0,0,0.00
2013-10-19,98.9,65.2,47.3,49.5,35.8,30.3,59,37,19,30.05,29.96,4,0,6,0.00
2013-10-20,96.2,64.4,47.1,47.3,35.3,30.7,58,37,19,29.97,29.85,6,0,7,0.00
2013-10-21,95.9,65.6,49.6,47.0,36.4,32.2,57,37,19,29.95,29.86,6,0,6,0.00
2013-10-22,97.3,64.6,47.3,48.2,36.4,30.8,60,39,19,29.98,29.86,5,0,6,0.00
2013-10-23,96.2,63.9,46.0,47.3,33.9,28.1,55,36,19,29.91,29.81,6,0,7,0.00
2013-10-24,89.2,61.1,44.6,46.4,37.0,28.8,64,43,19,30.03,29.87,7,0,7,0.00
2013-10-25,89.9,60.3,43.3,42.4,37.4,33.0,69,47,19,30.13,30.02,6,0,6,0.00
2013-10-26,92.6,61.9,46.0,44.3,36.7,32.7,62,43,19,30.12,29.97,6,0,6,0.00
2013-10-27,84.9,58.4,43.7,43.3,37.6,30.7,63,49,20,29.97,29.56,12,2,12,0.02
2013-10-28,64.5,55.1,47.3,45.8,41.5,38.6,82,62,41,29.82,29.55,7,0,8,0.06
2013-10-29,74.6,58.6,49.4,46.6,41.8,38.0,65,55,33,30.01,29.82,7,0,7,0.00
2013-10-30,80.9,54.5,40.4,45.3,36.7,32.7,78,55,22,30.11,30.01,7,0,7,0.00
2013-10-31,84.2,56.1,40.1,44.5,36.6,30.7,76,53,20,30.15,30.04,6,0,7,0.00
2013-11-1,90.3,58.9,42.4,44.2,36.6,32.6,73,48,19,30.15,29.98,6,0,6,0.00
2013-11-2,83.3,60.2,42.6,42.0,36.7,31.2,68,45,22,29.99,29.83,7,0,7,0.00
2013-11-3,70.5,52.9,38.6,34.3,27.5,23.0,63,40,19,29.99,29.85,8,1,8,0.00
2013-11-4,74.3,51.5,33.9,33.6,24.8,17.6,68,39,19,30.02,29.85,12,2,13,0.00
2013-11-5,82.2,53.7,35.2,35.8,25.1,16.5,53,35,19,30.20,30.01,8,1,8,0.00
2013-11-6,86.3,58.5,42.9,39.2,31.3,26.5,58,38,19,30.24,30.14,6,0,6,0.00
2013-11-7,91.4,61.8,48.7,43.4,33.9,24.4,60,38,19,30.15,30.02,7,0,7,0.00
2013-11-8,91.4,59.5,43.3,43.4,30.5,24.6,54,36,19,30.05,29.91,5,0,5,0.00
2013-11-9,89.0,58.3,42.9,42.0,34.2,28.9,62,43,19,30.01,29.94,4,0,5,0.00
2013-11-10,91.5,58.0,43.7,43.4,34.2,29.7,65,45,19,30.07,29.99,6,0,6,0.00
2013-11-11,89.0,55.4,37.9,41.4,31.3,25.6,66,44,19,30.16,30.04,5,0,5,0.00
2013-11-12,74.6,59.7,48.9,39.1,34.8,31.3,52,41,24,30.24,30.10,6,0,6,0.00
2013-11-13,48.7,46.0,44.0,32.4,31.0,30.2,59,56,52,30.20,30.18,0,0,0,0.00
2013-11-15,82.5,57.2,38.8,43.8,31.8,24.4,77,42,19,29.79,29.66,8,1,8,0.00
2013-11-16,81.1,52.5,40.2,43.7,32.3,24.6,66,48,21,29.89,29.72,6,0,8,0.00
2013-11-17,81.6,53.0,39.2,49.0,36.2,28.4,71,55,26,30.06,29.89,7,0,7,0.00
2013-11-18,69.2,52.4,40.2,45.3,38.7,31.2,77,61,39,30.12,30.02,7,0,7,0.00
2013-11-19,62.7,56.3,51.6,51.8,47.8,42.0,88,74,59,30.08,29.93,3,0,3,0.39
2013-11-20,56.6,53.2,0.0,55.5,51.4,-0.9,96,93,88,29.94,29.82,0,0,2,0.61
2013-11-21,53.7,48.5,0.0,52.0,42.6,-16.9,96,83,44,29.96,29.87,10,3,10,0.55
2013-11-22,80.7,55.9,0.0,35.5,22.4,-20.3,56,28,19,30.02,29.89,13,3,13,0.00
2013-11-23,77.7,51.1,37.5,47.6,36.7,29.5,79,61,26,30.04,29.97,6,0,6,0.00
2013-11-24,78.9,51.4,37.7,47.4,36.5,28.6,76,59,28,30.22,30.08,6,0,7,0.00
2013-11-25,76.4,51.3,37.2,48.3,36.3,29.6,79,59,28,30.31,30.22,4,0,4,0.00
2013-11-26,69.2,50.0,38.1,47.3,37.5,29.8,79,63,39,30.25,30.03,2,0,2,0.00
2013-11-27,80.9,51.4,39.9,49.1,38.2,32.9,82,63,27,30.03,29.84,7,0,7,0.00
2013-11-28,85.6,54.1,40.1,46.7,36.9,32.2,80,56,19,30.04,29.85,4,0,6,0.00
2013-11-29,86.3,54.6,40.4,45.5,36.4,30.7,73,53,19,30.18,30.03,2,0,5,0.00
2013-11-30,84.5,52.7,39.9,45.9,36.0,30.1,75,56,22,30.24,30.14,7,0,7,0.00
2013-12-1,84.3,51.9,38.3,46.5,35.6,29.5,77,57,22,30.31,30.18,4,0,4,0.00
2013-12-2,72.8,53.4,40.1,45.8,38.8,31.7,77,60,33,30.20,29.87,8,0,8,0.00
2013-12-3,69.9,50.5,31.2,49.7,32.9,16.9,83,54,19,29.88,29.77,9,1,10,0.00
2013-12-4,67.6,36.3,24.4,32.7,15.2,-1.5,65,45,19,30.04,29.88,4,0,4,0.00
2013-12-5,56.1,27.9,0.0,23.3,6.9,-26.1,67,44,19,30.14,30.03,6,0,7,0.00
2013-12-6,49.1,36.9,26.0,33.2,22.2,6.9,85,56,41,30.17,29.89,9,1,9,0.31
2013-12-7,56.1,37.5,26.7,41.8,30.1,18.5,88,75,45,30.21,29.86,8,1,8,0.00
2013-12-8,58.8,29.2,0.0,31.5,17.6,-15.5,80,63,33,30.28,30.20,14,0,14,0.00
2013-12-9,64.0,33.5,19.5,35.0,18.5,10.6,78,56,26,30.41,30.26,4,0,5,0.00
2013-12-10,63.5,37.1,22.8,36.4,21.2,12.7,74,54,23,30.41,30.18,5,0,5,0.00
2013-12-11,32.3,29.4,27.8,18.4,16.8,15.8,60,59,56,30.22,30.20,0,0,0,0.00
2013-12-23,69.0,69.0,69.0,35.3,35.3,35.3,29,29,29,30.31,30.31,0,0,0,0.00
2013-12-25,54.3,53.8,51.6,41.1,40.7,38.9,62,61,61,30.29,30.28,0,0,0,0.00
2013-12-26,86.5,56.1,0.0,39.3,24.7,-26.1,58,30,19,30.25,30.15,0,0,0,0.00
2013-12-27,51.4,41.0,35.0,31.8,26.6,23.3,62,56,47,30.13,30.10,0,0,0,0.00
2013-12-28,74.1,40.4,27.3,36.4,23.3,17.4,74,54,19,30.10,29.97,6,0,7,0.00
2013-12-29,77.7,45.5,30.3,41.0,26.2,17.7,67,49,19,30.17,30.07,4,0,5,0.00
2013-12-30,77.1,46.8,30.3,39.7,26.7,18.5,67,48,19,30.23,30.17,5,0,5,0.00
2013-12-31,81.3,47.6,35.4,41.0,26.6,19.1,64,47,19,30.24,30.12,4,0,6,0.00
2014-1-1,78.2,46.5,31.2,38.2,25.2,18.2,68,46,19,30.20,30.10,4,0,7,0.00
2014-1-2,38.8,35.6,34.3,29.8,23.1,21.3,70,60,52,30.15,30.12,0,0,0,0.00